createdAt,value
2023-05-01T00:01:21.100Z,98721.69
2023-05-01T00:03:49.583Z,98726.34
2023-05-01T00:06:18.114Z,98717.88
2023-05-01T00:08:47.879Z,98722.84
2023-05-01T00:11:16.160Z,98711.31
2023-05-01T00:13:44.358Z,98710.50
2023-05-01T00:16:12.941Z,98709.44
2023-05-01T00:18:41.006Z,98713.28
2023-05-01T00:21:09.252Z,98713.31
2023-05-01T00:23:37.381Z,98710.56
2023-05-01T00:26:08.110Z,98714.44
2023-05-01T00:28:36.278Z,98708.13
2023-05-01T00:31:04.564Z,98711.16
2023-05-01T00:33:32.487Z,98710.91
2023-05-01T00:36:01.030Z,98716.69
2023-05-01T00:38:29.066Z,98716.69
2023-05-01T00:40:57.347Z,98713.41
2023-05-01T00:43:26.641Z,98708.22
2023-05-01T00:45:54.900Z,98713.44
2023-05-01T00:48:23.002Z,98710.69
2023-05-01T00:50:52.328Z,98714.00
2023-05-01T00:53:20.292Z,98711.81
2023-05-01T00:55:48.649Z,98718.41
2023-05-01T00:58:18.936Z,98719.22
2023-05-01T01:00:48.623Z,98716.75
2023-05-01T01:03:16.729Z,98713.47
2023-05-01T01:05:46.488Z,98720.63
2023-05-01T01:08:17.331Z,98711.06
2023-05-01T01:11:01.198Z,98719.53
2023-05-01T01:13:29.867Z,98721.19
2023-05-01T01:16:00.863Z,98714.34
2023-05-01T01:18:31.363Z,98714.34
2023-05-01T01:21:00.537Z,98719.56
2023-05-01T01:23:36.373Z,98714.66
2023-05-01T01:26:08.340Z,98714.69
2023-05-01T01:28:41.905Z,98713.06
2023-05-01T01:31:15.136Z,98704.06
2023-05-01T01:34:04.335Z,98711.69
2023-05-01T01:36:35.914Z,98711.44
2023-05-01T01:39:07.894Z,98698.31
2023-05-01T01:41:36.223Z,98697.47
2023-05-01T01:44:05.784Z,98697.75
2023-05-01T01:46:35.011Z,98700.75
2023-05-01T01:49:03.178Z,98696.13
2023-05-01T01:51:32.158Z,98690.34
2023-05-01T01:54:01.495Z,98693.34
2023-05-01T01:56:29.777Z,98697.72
2023-05-01T01:58:57.726Z,98688.97
2023-05-01T02:01:26.109Z,98680.47
2023-05-01T02:03:54.306Z,98685.66
2023-05-01T02:06:22.914Z,98681.22
2023-05-01T02:08:51.003Z,98676.84
2023-05-01T02:11:21.251Z,98676.31
2023-05-01T02:13:49.288Z,98677.28
2023-05-01T02:16:17.734Z,98675.38
2023-05-01T02:18:45.875Z,98672.91
2023-05-01T02:21:14.122Z,98662.25
2023-05-01T02:23:42.128Z,98668.00
2023-05-01T02:26:10.380Z,98663.63
2023-05-01T02:28:41.485Z,98662.75
2023-05-01T02:31:10.223Z,98656.69
2023-05-01T02:33:38.195Z,98657.56
2023-05-01T02:36:07.158Z,98660.31
2023-05-01T02:38:35.487Z,98656.06
2023-05-01T02:41:03.752Z,98659.03
2023-05-01T02:43:32.397Z,98655.81
2023-05-01T02:46:02.070Z,98652.31
2023-05-01T02:48:30.821Z,98659.41
2023-05-01T02:50:59.028Z,98654.75
2023-05-01T02:53:27.101Z,98653.13
2023-05-01T02:55:55.672Z,98649.00
2023-05-01T02:58:23.776Z,98654.44
2023-05-01T03:00:52.036Z,98656.28
2023-05-01T03:03:21.528Z,98653.81
2023-05-01T03:05:49.822Z,98655.09
2023-05-01T03:08:17.911Z,98654.66
2023-05-01T03:10:46.149Z,98662.69
2023-05-01T03:13:14.187Z,98657.00
2023-05-01T03:15:42.845Z,98660.34
2023-05-01T03:18:10.825Z,98658.72
2023-05-01T03:20:40.517Z,98656.47
2023-05-01T03:23:09.245Z,98656.81
2023-05-01T03:25:38.258Z,98655.94
2023-05-01T03:28:06.272Z,98656.03
2023-05-01T03:30:34.796Z,98650.88
2023-05-01T03:33:03.315Z,98650.75
2023-05-01T03:35:31.752Z,98653.09
2023-05-01T03:38:01.086Z,98651.22
2023-05-01T03:40:29.528Z,98649.34
2023-05-01T03:42:57.459Z,98644.78
2023-05-01T03:45:25.652Z,98653.28
2023-05-01T03:47:53.791Z,98647.75
2023-05-01T03:50:22.105Z,98651.44
2023-05-01T03:52:50.013Z,98655.94
2023-05-01T03:55:19.708Z,98642.38
2023-05-01T03:57:48.253Z,98648.69
2023-05-01T04:00:18.238Z,98652.84
2023-05-01T04:02:49.502Z,98640.81
2023-05-01T04:05:18.375Z,98642.44
2023-05-01T04:07:46.570Z,98641.78
2023-05-01T04:10:15.066Z,98635.41
2023-05-01T04:12:44.369Z,98630.16
2023-05-01T04:15:15.340Z,98643.66
2023-05-01T04:17:43.990Z,98633.31
2023-05-01T04:20:12.515Z,98628.50
2023-05-01T04:22:41.182Z,98625.09
2023-05-01T04:25:09.954Z,98623.91
2023-05-01T04:27:37.924Z,98611.72
2023-05-01T04:30:08.510Z,98618.53
2023-05-01T04:32:36.856Z,98620.47
2023-05-01T04:35:05.797Z,98627.06
2023-05-01T04:37:35.641Z,98622.38
2023-05-01T04:40:04.545Z,98630.72
2023-05-01T04:42:32.571Z,98621.91
2023-05-01T04:45:03.986Z,98628.41
2023-05-01T04:47:33.427Z,98620.63
2023-05-01T04:50:01.752Z,98621.31
2023-05-01T04:52:29.702Z,98630.91
2023-05-01T04:54:58.564Z,98621.22
2023-05-01T04:57:26.507Z,98619.59
2023-05-01T04:59:55.006Z,98624.13
2023-05-01T05:02:23.313Z,98618.50
2023-05-01T05:04:53.914Z,98617.34
2023-05-01T05:07:21.871Z,98626.56
2023-05-01T05:09:50.101Z,98630.69
2023-05-01T05:12:18.040Z,98634.47
2023-05-01T05:14:48.012Z,98629.22
2023-05-01T05:17:16.012Z,98628.78
2023-05-01T05:19:44.298Z,98622.34
2023-05-01T05:22:13.688Z,98622.47
2023-05-01T05:24:41.963Z,98624.81
2023-05-01T05:27:09.985Z,98626.69
2023-05-01T05:29:38.411Z,98622.09
2023-05-01T05:32:06.590Z,98618.81
2023-05-01T05:34:34.869Z,98620.44
2023-05-01T05:37:02.920Z,98620.16
2023-05-01T05:39:32.921Z,98619.22
2023-05-01T05:42:00.919Z,98617.63
2023-05-01T05:44:29.228Z,98618.81
2023-05-01T05:46:57.223Z,98613.41
2023-05-01T05:49:25.688Z,98609.69
2023-05-01T05:51:53.633Z,98613.84
2023-05-01T05:54:21.891Z,98613.38
2023-05-01T05:56:51.179Z,98607.97
2023-05-01T05:59:19.694Z,98615.09
2023-05-01T06:01:47.595Z,98612.31
2023-05-01T06:04:16.476Z,98617.16
2023-05-01T06:06:44.607Z,98615.28
2023-05-01T06:09:13.175Z,98619.88
2023-05-01T06:11:41.189Z,98609.97
2023-05-01T06:14:10.862Z,98619.63
2023-05-01T06:16:39.010Z,98611.31
2023-05-01T06:19:07.958Z,98612.00
2023-05-01T06:21:36.009Z,98613.72
2023-05-01T06:24:04.429Z,98616.44
2023-05-01T06:26:32.540Z,98609.13
2023-05-01T06:29:00.715Z,98613.22
2023-05-01T06:31:30.119Z,98605.16
2023-05-01T06:33:58.482Z,98609.41
2023-05-01T06:36:26.479Z,98603.38
2023-05-01T06:38:54.687Z,98613.41
2023-05-01T06:41:23.499Z,98613.84
2023-05-01T06:43:51.975Z,98617.91
2023-05-01T06:46:19.951Z,98615.97
2023-05-01T06:48:49.657Z,98616.25
2023-05-01T06:51:17.581Z,98611.56
2023-05-01T06:53:45.962Z,98612.97
2023-05-01T06:56:13.909Z,98604.78
2023-05-01T06:58:42.161Z,98604.50
2023-05-01T07:01:10.357Z,98607.44
2023-05-01T07:03:38.675Z,98603.22
2023-05-01T07:06:08.122Z,98609.72
2023-05-01T07:08:36.445Z,98603.78
2023-05-01T07:11:04.391Z,98604.97
2023-05-01T07:13:32.975Z,98600.50
2023-05-01T07:16:02.503Z,98617.19
2023-05-01T07:18:30.809Z,98593.41
2023-05-01T07:20:58.799Z,98603.47
2023-05-01T07:23:29.064Z,98607.63
2023-05-01T07:25:57.159Z,98609.44
2023-05-01T07:28:25.473Z,98605.28
2023-05-01T07:30:53.557Z,98592.97
2023-05-01T07:33:21.761Z,98600.53
2023-05-01T07:35:49.699Z,98599.69
2023-05-01T07:38:18.257Z,98592.78
2023-05-01T07:40:47.570Z,98590.25
2023-05-01T07:43:15.789Z,98587.47
2023-05-01T07:45:43.757Z,98601.03
2023-05-01T07:48:12.057Z,98601.09
2023-05-01T07:50:40.052Z,98609.50
2023-05-01T07:53:08.308Z,98599.56
2023-05-01T07:55:36.330Z,98598.59
2023-05-01T07:58:06.487Z,98585.44
2023-05-01T08:00:34.548Z,98584.94
2023-05-01T08:03:03.055Z,98588.84
2023-05-01T08:05:31.750Z,98583.16
2023-05-01T08:08:00.030Z,98577.47
2023-05-01T08:10:28.836Z,98587.16
2023-05-01T08:12:57.155Z,98583.94
2023-05-01T08:15:26.553Z,98585.84
2023-05-01T08:17:54.823Z,98589.53
2023-05-01T08:20:22.939Z,98580.72
2023-05-01T08:22:51.366Z,98581.69
2023-05-01T08:25:19.498Z,98586.69
2023-05-01T08:27:47.844Z,98588.22
2023-05-01T08:30:16.066Z,98576.50
2023-05-01T08:32:45.861Z,98582.53
2023-05-01T08:35:13.902Z,98582.34
2023-05-01T08:37:42.350Z,98562.78
2023-05-01T08:40:10.774Z,98551.88
2023-05-01T08:42:39.510Z,98556.81
2023-05-01T08:45:09.291Z,98555.41
2023-05-01T08:47:38.545Z,98562.69
2023-05-01T08:50:08.368Z,98554.97
2023-05-01T08:52:36.652Z,98553.94
2023-05-01T08:55:04.711Z,98557.00
2023-05-01T08:57:32.956Z,98557.81
2023-05-01T09:00:00.958Z,98554.00
2023-05-01T09:02:29.726Z,98546.28
2023-05-01T09:04:59.629Z,98548.50
2023-05-01T09:07:29.397Z,98549.38
2023-05-01T09:09:57.782Z,98552.75
2023-05-01T09:12:27.141Z,98539.41
2023-05-01T09:14:56.418Z,98549.72
2023-05-01T09:17:25.273Z,98540.66
2023-05-01T09:19:53.690Z,98532.13
2023-05-01T09:22:22.165Z,98542.38
2023-05-01T09:24:51.754Z,98528.34
2023-05-01T09:27:20.141Z,98527.69
2023-05-01T09:29:48.692Z,98535.38
2023-05-01T09:32:19.392Z,98518.56
2023-05-01T09:34:47.716Z,98519.00
2023-05-01T09:37:25.820Z,98518.91
2023-05-01T09:40:03.876Z,98517.06
2023-05-01T09:42:32.904Z,98498.38
2023-05-01T09:45:01.210Z,98507.19
2023-05-01T09:47:29.639Z,98501.28
2023-05-01T09:49:59.821Z,98506.28
2023-05-01T09:52:28.938Z,98512.78
2023-05-01T09:55:17.564Z,98501.56
2023-05-01T09:57:46.832Z,98506.97
2023-05-01T10:00:15.689Z,98489.56
2023-05-01T10:02:44.704Z,98499.09
2023-05-01T10:05:14.112Z,98484.47
2023-05-01T10:07:43.197Z,98499.72
2023-05-01T10:10:19.865Z,98484.56
2023-05-01T10:12:48.560Z,98488.84
2023-05-01T10:15:24.624Z,98475.59
2023-05-01T10:17:54.770Z,98488.94
2023-05-01T10:20:23.331Z,98481.47
2023-05-01T10:22:52.077Z,98483.63
2023-05-01T10:25:21.485Z,98479.78
2023-05-01T10:27:49.897Z,98470.84
2023-05-01T10:30:18.032Z,98473.09
2023-05-01T10:32:46.406Z,98485.88
2023-05-01T10:35:16.037Z,98470.69
2023-05-01T10:37:47.363Z,98455.31
2023-05-01T10:40:34.306Z,98466.47
2023-05-01T10:43:17.581Z,98456.56
2023-05-01T10:45:46.254Z,98472.78
2023-05-01T10:48:15.241Z,98461.59
2023-05-01T10:51:02.032Z,98458.06
2023-05-01T10:53:30.696Z,98439.47
2023-05-01T10:55:59.673Z,98450.16
2023-05-01T10:58:58.128Z,98436.13
2023-05-01T11:01:31.858Z,98450.03
2023-05-01T11:04:00.741Z,98439.88
2023-05-01T11:06:29.447Z,98444.03
2023-05-01T11:08:58.735Z,98425.22
2023-05-01T11:11:45.866Z,98427.78
2023-05-01T11:14:15.105Z,98423.44
2023-05-01T11:16:48.999Z,98422.72
2023-05-01T11:19:36.239Z,98401.78
2023-05-01T11:22:04.387Z,98409.16
2023-05-01T11:24:33.063Z,98406.00
2023-05-01T11:27:01.418Z,98391.59
2023-05-01T11:29:32.211Z,98387.38
2023-05-01T11:32:02.253Z,98387.47
2023-05-01T11:34:32.780Z,98385.66
2023-05-01T11:37:00.891Z,98381.69
2023-05-01T11:39:29.302Z,98385.91
2023-05-01T11:42:07.687Z,98380.44
2023-05-01T11:44:37.401Z,98385.53
2023-05-01T11:47:07.525Z,98378.38
2023-05-01T11:49:35.946Z,98379.03
2023-05-01T11:52:04.040Z,98369.75
2023-05-01T11:54:32.560Z,98371.97
2023-05-01T11:57:01.119Z,98362.63
2023-05-01T11:59:29.529Z,98368.34
2023-05-01T12:01:58.508Z,98356.63
2023-05-01T12:04:32.102Z,98356.41
2023-05-01T12:07:00.655Z,98354.47
2023-05-01T12:09:29.161Z,98355.72
2023-05-01T12:11:57.992Z,98356.03
2023-05-01T12:14:26.358Z,98344.84
2023-05-01T12:16:54.325Z,98343.69
2023-05-01T12:19:24.081Z,98341.69
2023-05-01T12:22:07.083Z,98335.84
2023-05-01T12:24:37.824Z,98340.44
2023-05-01T12:27:07.324Z,98339.84
2023-05-01T12:29:42.345Z,98329.28
2023-05-01T12:32:10.282Z,98337.25
2023-05-01T12:34:39.167Z,98324.91
2023-05-01T12:37:07.247Z,98318.94
2023-05-01T12:39:39.627Z,98316.28
2023-05-01T12:42:13.190Z,98314.56
2023-05-01T12:44:41.927Z,98306.44
2023-05-01T12:47:10.300Z,98308.63
2023-05-01T12:49:38.800Z,98296.78
2023-05-01T12:52:08.018Z,98292.28
2023-05-01T12:54:37.662Z,98298.84
2023-05-01T12:57:08.119Z,98286.69
2023-05-01T12:59:36.832Z,98288.09
2023-05-01T13:02:05.898Z,98289.25
2023-05-01T13:07:02.707Z,98278.91
2023-05-01T13:09:31.993Z,98286.47
2023-05-01T13:12:00.841Z,98266.03
2023-05-01T13:14:31.752Z,98277.75
2023-05-01T13:16:59.886Z,98259.31
2023-05-01T13:19:28.897Z,98257.78
2023-05-01T13:21:58.297Z,98266.63
2023-05-01T13:24:26.666Z,98254.50
2023-05-01T13:27:02.882Z,98274.16
2023-05-01T13:29:33.979Z,98252.88
2023-05-01T13:32:02.464Z,98260.06
2023-05-01T13:34:31.336Z,98260.06
2023-05-01T13:36:59.643Z,98256.31
2023-05-01T13:39:28.002Z,98247.38
2023-05-01T13:41:56.135Z,98243.09
2023-05-01T13:44:24.762Z,98245.72
2023-05-01T13:46:54.157Z,98235.25
2023-05-01T13:49:23.165Z,98236.16
2023-05-01T13:51:51.226Z,98231.59
2023-05-01T13:54:19.467Z,98227.38
2023-05-01T13:56:47.796Z,98235.06
2023-05-01T13:59:16.184Z,98242.03
2023-05-01T14:01:46.724Z,98229.53
2023-05-01T14:04:21.364Z,98224.56
2023-05-01T14:06:50.039Z,98222.16
2023-05-01T14:09:19.091Z,98216.06
2023-05-01T14:11:48.038Z,98219.88
2023-05-01T14:14:17.484Z,98223.66
2023-05-01T14:16:48.627Z,98217.41
2023-05-01T14:19:19.444Z,98211.81
2023-05-01T14:21:47.807Z,98209.69
2023-05-01T14:24:18.107Z,98211.75
2023-05-01T14:26:46.567Z,98207.47
2023-05-01T14:29:16.610Z,98205.28
2023-05-01T14:31:44.646Z,98205.94
2023-05-01T14:34:13.134Z,98188.41
2023-05-01T14:36:43.649Z,98203.38
2023-05-01T14:39:12.045Z,98186.31
2023-05-01T14:41:40.851Z,98189.16
2023-05-01T14:44:09.941Z,98182.53
2023-05-01T14:46:38.752Z,98183.19
2023-05-01T14:49:08.164Z,98181.03
2023-05-01T14:51:36.297Z,98176.38
2023-05-01T14:54:06.233Z,98184.88
2023-05-01T14:56:34.246Z,98173.44
2023-05-01T14:59:02.911Z,98176.59
2023-05-01T15:01:31.196Z,98168.38
2023-05-01T15:04:01.941Z,98168.53
2023-05-01T15:06:31.791Z,98158.75
2023-05-01T15:09:00.194Z,98170.72
2023-05-01T15:11:30.898Z,98172.41
2023-05-01T15:13:59.319Z,98167.53
2023-05-01T15:16:27.986Z,98174.44
2023-05-01T15:18:56.582Z,98172.47
2023-05-01T15:21:24.651Z,98170.09
2023-05-01T15:23:53.228Z,98156.56
2023-05-01T15:26:21.715Z,98165.59
2023-05-01T15:28:51.860Z,98159.25
2023-05-01T15:31:20.051Z,98159.41
2023-05-01T15:33:48.447Z,98166.47
2023-05-01T15:36:16.798Z,98158.28
2023-05-01T15:38:45.123Z,98141.28
2023-05-01T15:41:13.185Z,98148.84
2023-05-01T15:43:41.798Z,98141.28
2023-05-01T15:46:11.601Z,98145.66
2023-05-01T15:48:40.357Z,98145.25
2023-05-01T15:51:08.868Z,98141.56
2023-05-01T15:53:37.381Z,98137.31
2023-05-01T15:56:05.578Z,98139.72
2023-05-01T15:58:34.112Z,98141.25
2023-05-01T16:01:02.955Z,98136.84
2023-05-01T16:03:33.376Z,98132.16
2023-05-01T16:06:03.270Z,98139.78
2023-05-01T16:08:32.556Z,98152.63
2023-05-01T16:11:00.876Z,98138.59
2023-05-01T16:13:29.311Z,98158.75
2023-05-01T16:15:57.507Z,98147.56
2023-05-01T16:18:26.408Z,98140.69
2023-05-01T16:20:57.057Z,98135.59
2023-05-01T16:23:26.517Z,98150.38
2023-05-01T16:25:54.624Z,98146.03
2023-05-01T16:28:23.043Z,98140.38
2023-05-01T16:30:51.062Z,98135.63
2023-05-01T16:33:19.969Z,98124.75
2023-05-01T16:35:49.635Z,98127.81
2023-05-01T16:38:19.855Z,98142.19
2023-05-01T16:40:48.364Z,98124.06
2023-05-01T16:43:16.655Z,98127.97
2023-05-01T16:45:46.852Z,98123.28
2023-05-01T16:48:16.558Z,98117.78
2023-05-01T16:50:44.697Z,98126.00
2023-05-01T16:53:13.307Z,98117.81
2023-05-01T16:55:42.800Z,98123.06
2023-05-01T16:58:11.112Z,98126.88
2023-05-01T17:00:40.098Z,98123.94
2023-05-01T17:03:08.616Z,98138.22
2023-05-01T17:05:36.738Z,98133.94
2023-05-01T17:08:06.579Z,98141.28
2023-05-01T17:10:34.750Z,98125.34
2023-05-01T17:13:04.781Z,98131.69
2023-05-01T17:15:32.775Z,98136.88
2023-05-01T17:18:01.152Z,98139.94
2023-05-01T17:20:29.387Z,98135.50
2023-05-01T17:22:57.842Z,98135.50
2023-05-01T17:25:26.085Z,98127.91
2023-05-01T17:27:54.853Z,98143.81
2023-05-01T17:30:24.484Z,98123.44
2023-05-01T17:32:53.190Z,98130.09
2023-05-01T17:35:21.339Z,98135.56
2023-05-01T17:37:49.968Z,98124.31
2023-05-01T17:40:18.106Z,98124.22
2023-05-01T17:42:46.484Z,98127.06
2023-05-01T17:45:14.613Z,98121.97
2023-05-01T17:47:46.572Z,98126.34
2023-05-01T17:50:15.168Z,98128.59
2023-05-01T17:52:45.319Z,98124.41
2023-05-01T17:55:16.313Z,98126.25
2023-05-01T17:57:46.635Z,98134.16
2023-05-01T18:00:16.362Z,98129.41
2023-05-01T18:02:47.891Z,98137.03
2023-05-01T18:05:16.468Z,98145.84
2023-05-01T18:07:44.934Z,98131.59
2023-05-01T18:10:13.220Z,98137.09
2023-05-01T18:12:42.931Z,98122.31
2023-05-01T18:15:11.762Z,98126.94
2023-05-01T18:17:47.512Z,98125.38
2023-05-01T18:20:22.651Z,98122.13
2023-05-01T18:22:54.589Z,98137.28
2023-05-01T18:25:29.220Z,98128.72
2023-05-01T18:28:03.092Z,98121.88
2023-05-01T18:30:35.361Z,98139.63
2023-05-01T18:33:12.473Z,98117.69
2023-05-01T18:35:50.512Z,98131.69
2023-05-01T18:38:18.797Z,98125.38
2023-05-01T18:40:47.880Z,98134.22
2023-05-01T18:43:19.312Z,98133.41
2023-05-01T18:45:47.399Z,98129.69
2023-05-01T18:48:17.475Z,98129.41
2023-05-01T18:50:51.465Z,98131.69
2023-05-01T18:53:29.862Z,98130.28
2023-05-01T18:55:57.996Z,98139.06
2023-05-01T18:58:26.412Z,98133.97
2023-05-01T19:00:55.776Z,98136.28
2023-05-01T19:03:25.735Z,98136.47
2023-05-01T19:05:53.906Z,98141.16
2023-05-01T19:08:22.098Z,98138.88
2023-05-01T19:10:50.571Z,98135.09
2023-05-01T19:13:19.066Z,98138.59
2023-05-01T19:15:47.408Z,98135.13
2023-05-01T19:18:16.357Z,98131.59
2023-05-01T19:20:45.935Z,98127.38
2023-05-01T19:23:14.387Z,98126.22
2023-05-01T19:25:42.444Z,98123.78
2023-05-01T19:28:10.929Z,98120.91
2023-05-01T19:30:39.175Z,98126.81
2023-05-01T19:33:08.002Z,98127.03
2023-05-01T19:35:36.613Z,98124.38
2023-05-01T19:38:06.473Z,98122.91
2023-05-01T19:40:34.971Z,98123.25
2023-05-01T19:43:03.386Z,98121.84
2023-05-01T19:45:31.507Z,98123.34
2023-05-01T19:47:59.909Z,98119.19
2023-05-01T19:50:29.012Z,98119.56
2023-05-01T19:52:57.450Z,98121.97
2023-05-01T19:55:27.228Z,98126.94
2023-05-01T19:57:56.782Z,98126.00
2023-05-01T20:00:25.024Z,98131.25
2023-05-01T20:02:53.723Z,98126.13
2023-05-01T20:05:28.148Z,98119.44
2023-05-01T20:07:57.954Z,98124.84
2023-05-01T20:10:27.748Z,98127.84
2023-05-01T20:12:56.073Z,98123.97
2023-05-01T20:15:24.516Z,98121.94
2023-05-01T20:17:52.978Z,98125.31
2023-05-01T20:20:21.090Z,98114.81
2023-05-01T20:22:52.417Z,98121.75
2023-05-01T20:25:20.454Z,98119.31
2023-05-01T20:27:50.252Z,98126.56
2023-05-01T20:30:18.384Z,98115.72
2023-05-01T20:32:47.991Z,98125.41
2023-05-01T20:35:18.265Z,98128.41
2023-05-01T20:37:46.882Z,98129.28
2023-05-01T20:40:16.562Z,98131.75
2023-05-01T20:42:44.899Z,98137.13
2023-05-01T20:45:14.492Z,98140.13
2023-05-01T20:47:42.996Z,98142.31
2023-05-01T20:50:11.938Z,98137.00
2023-05-01T20:52:40.588Z,98147.75
2023-05-01T20:55:09.344Z,98152.69
2023-05-01T20:57:37.781Z,98147.03
2023-05-01T21:00:06.487Z,98158.34
2023-05-01T21:02:36.433Z,98157.50
2023-05-01T21:05:05.128Z,98159.84
2023-05-01T21:07:33.734Z,98157.63
2023-05-01T21:10:01.857Z,98162.75
2023-05-01T21:12:30.571Z,98159.88
2023-05-01T21:14:58.570Z,98156.97
2023-05-01T21:17:27.151Z,98158.03
2023-05-01T21:19:56.933Z,98158.16
2023-05-01T21:22:25.371Z,98153.38
2023-05-01T21:24:54.279Z,98158.44
2023-05-01T21:27:23.749Z,98145.88
2023-05-01T21:29:53.159Z,98154.81
2023-05-01T21:32:21.765Z,98159.69
2023-05-01T21:34:49.939Z,98163.75
2023-05-01T21:37:19.816Z,98165.38
2023-05-01T21:39:47.846Z,98158.69
2023-05-01T21:43:06.666Z,98165.06
2023-05-01T21:45:40.384Z,98170.28
2023-05-01T21:48:09.563Z,98169.41
2023-05-01T21:50:39.100Z,98159.16
2023-05-01T21:53:08.038Z,98171.03
2023-05-01T21:55:37.551Z,98170.13
2023-05-01T21:58:07.481Z,98173.72
2023-05-01T22:00:36.499Z,98170.22
2023-05-01T22:03:07.194Z,98175.25
2023-05-01T22:05:40.881Z,98171.81
2023-05-01T22:08:09.423Z,98180.88
2023-05-01T22:10:38.274Z,98178.88
2023-05-01T22:13:08.597Z,98184.13
2023-05-01T22:15:37.275Z,98175.88
2023-05-01T22:18:05.690Z,98172.34
2023-05-01T22:20:34.551Z,98172.53
2023-05-01T22:23:02.921Z,98178.50
2023-05-01T22:25:31.870Z,98174.22
2023-05-01T22:28:01.540Z,98177.44
2023-05-01T22:30:31.569Z,98176.19
2023-05-01T22:33:00.281Z,98176.63
2023-05-01T22:35:29.168Z,98177.97
2023-05-01T22:37:58.112Z,98177.56
2023-05-01T22:40:26.736Z,98182.44
2023-05-01T22:42:55.158Z,98176.28
2023-05-01T22:45:23.962Z,98179.78
2023-05-01T22:47:53.640Z,98184.41
2023-05-01T22:50:22.409Z,98174.38
2023-05-01T22:52:50.736Z,98180.50
2023-05-01T22:55:19.949Z,98175.47
2023-05-01T22:57:48.512Z,98178.50
2023-05-01T23:00:17.477Z,98183.03
2023-05-01T23:02:45.867Z,98183.72
2023-05-01T23:05:16.756Z,98178.34
2023-05-01T23:07:45.299Z,98182.69
2023-05-01T23:10:13.807Z,98187.56
2023-05-01T23:12:44.635Z,98188.81
2023-05-01T23:15:15.902Z,98183.66
2023-05-01T23:17:44.708Z,98171.97
2023-05-01T23:20:19.668Z,98176.69
2023-05-01T23:22:49.067Z,98179.34
2023-05-01T23:25:19.232Z,98184.81
2023-05-01T23:27:50.194Z,98181.09
2023-05-01T23:30:21.872Z,98173.69
2023-05-01T23:32:50.549Z,98166.28
2023-05-01T23:35:24.406Z,98164.56
2023-05-01T23:37:54.131Z,98175.28
2023-05-01T23:40:23.099Z,98163.63
2023-05-01T23:42:51.632Z,98166.72
2023-05-01T23:45:20.488Z,98158.53
2023-05-01T23:47:48.881Z,98162.13
2023-05-01T23:50:17.915Z,98166.75
2023-05-01T23:52:47.749Z,98160.47
2023-05-01T23:55:16.853Z,98162.72
2023-05-01T23:57:45.477Z,98154.72
